KBCB

Virginia Tech/Montgomery Executive Airport

Blacksburg, Virginia, USA

KBCB 110835Z AUTO 29011G24KT 10SM CLR 02/M05 A3004 RMK AO2 T00231054

Observed Flight Rules
Dec-11 @ 08:35 UTC (44 minutes ago) Visual Flight Rules
Wind Visibility Clouds
290° at 11 knots
 Gusting to 24 knots
10 miles
  • Clear skies
Temperatures Readings
Current 2°C / 36°F
Dewpoint -5°C / 23°F
Humidity 60%
Altimeter 30.04" Hg
Pressure 1017 hPa
Elevation 650
Observed Flight Rules
Dec-11 @ 08:35 UTC
(44 minutes ago)
VFR
Wind Visibility
290° at 11 knots
 Gusting to 24 knots
10 miles
Clouds
  • Clear skies
Temperature Dewpoint
2°C / 36°F -5°C / 23°F
Humidity Altimeter Pressure
60% 30.04" Hg 1017 hPa